createdAt,value
2022-10-04T00:02:29.530Z,1.40
2022-10-04T00:05:03.279Z,1.40
2022-10-04T00:07:39.220Z,1.20
2022-10-04T00:10:20.995Z,1.40
2022-10-04T00:12:57.985Z,1.30
2022-10-04T00:15:32.406Z,1.30
2022-10-04T00:18:11.114Z,1.40
2022-10-04T00:20:55.528Z,1.30
2022-10-04T00:23:37.537Z,1.30
2022-10-04T00:26:15.328Z,1.40
2022-10-04T00:28:43.785Z,1.27
2022-10-04T00:31:24.675Z,1.20
2022-10-04T00:34:03.655Z,1.37
2022-10-04T00:36:41.020Z,1.30
2022-10-04T00:39:07.698Z,1.30
2022-10-04T00:41:54.121Z,1.40
2022-10-04T00:44:23.509Z,1.27
2022-10-04T00:46:50.291Z,1.40
2022-10-04T00:49:17.463Z,1.10
2022-10-04T00:52:07.703Z,1.10
2022-10-04T00:54:38.617Z,1.17
2022-10-04T00:57:07.436Z,1.20
2022-10-04T00:59:42.427Z,1.47
2022-10-04T01:02:56.351Z,1.20
2022-10-04T01:05:28.288Z,1.20
2022-10-04T01:08:04.367Z,1.30
2022-10-04T01:11:01.833Z,1.30
2022-10-04T01:13:50.435Z,1.27
2022-10-04T01:16:25.459Z,1.20
2022-10-04T01:18:52.189Z,1.40
2022-10-04T01:21:18.919Z,1.20
2022-10-04T01:23:49.409Z,1.33
2022-10-04T01:26:32.341Z,1.10
2022-10-04T01:29:00.598Z,1.30
2022-10-04T01:31:31.178Z,1.30
2022-10-04T01:33:57.834Z,1.33
2022-10-04T01:36:24.419Z,1.37
2022-10-04T01:38:51.151Z,1.30
2022-10-04T01:41:21.022Z,1.20
2022-10-04T01:43:50.091Z,1.20
2022-10-04T01:46:19.988Z,1.20
2022-10-04T01:48:46.629Z,1.33
2022-10-04T01:51:18.810Z,1.30
2022-10-04T01:53:49.815Z,1.30
2022-10-04T01:56:18.661Z,1.20
2022-10-04T01:58:53.948Z,1.13
2022-10-04T02:01:35.665Z,1.20
2022-10-04T02:04:17.429Z,1.20
2022-10-04T02:06:49.807Z,1.20
2022-10-04T02:09:19.519Z,1.20
2022-10-04T02:11:47.343Z,1.20
2022-10-04T02:14:15.901Z,1.10
2022-10-04T02:16:44.224Z,1.20
2022-10-04T02:19:11.127Z,1.20
2022-10-04T02:21:37.893Z,1.30
2022-10-04T02:24:05.488Z,1.30
2022-10-04T02:26:32.303Z,1.30
2022-10-04T02:28:58.965Z,1.20
2022-10-04T02:31:44.328Z,1.30
2022-10-04T02:34:11.157Z,1.30
2022-10-04T02:36:39.430Z,1.30
2022-10-04T02:39:24.662Z,1.20
2022-10-04T02:41:53.613Z,1.20
2022-10-04T02:44:23.948Z,1.20
2022-10-04T02:47:05.965Z,1.23
2022-10-04T02:49:38.146Z,1.20
2022-10-04T02:52:08.712Z,1.20
2022-10-04T02:55:04.588Z,1.23
2022-10-04T02:57:32.730Z,1.30
2022-10-04T03:00:27.285Z,1.30
2022-10-04T03:03:25.727Z,1.20
2022-10-04T03:06:09.061Z,1.20
2022-10-04T03:08:56.277Z,1.30
2022-10-04T03:11:24.002Z,1.10
2022-10-04T03:13:52.912Z,1.20
2022-10-04T03:16:19.862Z,1.20
2022-10-04T03:18:46.727Z,1.17
2022-10-04T03:21:14.655Z,1.20
2022-10-04T03:23:41.704Z,1.17
2022-10-04T03:26:21.230Z,1.20
2022-10-04T03:28:47.973Z,1.37
2022-10-04T03:31:14.652Z,1.30
2022-10-04T03:33:41.809Z,1.23
2022-10-04T03:36:12.259Z,1.20
2022-10-04T03:38:40.133Z,1.20
2022-10-04T03:41:06.869Z,1.30
2022-10-04T03:43:34.278Z,1.13
2022-10-04T03:46:01.451Z,1.20
2022-10-04T03:48:46.044Z,1.10
2022-10-04T03:51:14.954Z,1.20
2022-10-04T03:53:43.667Z,1.10
2022-10-04T03:56:22.247Z,1.20
2022-10-04T03:58:49.855Z,1.27
2022-10-04T04:01:37.814Z,1.20
2022-10-04T04:04:31.188Z,1.20
2022-10-04T04:07:10.663Z,1.00
2022-10-04T04:09:45.379Z,1.13
2022-10-04T04:12:25.324Z,1.20
2022-10-04T04:14:52.179Z,1.07
2022-10-04T04:17:27.889Z,1.00
2022-10-04T04:19:55.244Z,1.10
2022-10-04T04:22:21.861Z,1.10
2022-10-04T04:24:49.610Z,1.20
2022-10-04T04:27:16.837Z,1.20
2022-10-04T04:29:51.805Z,1.20
2022-10-04T04:32:25.335Z,1.20
2022-10-04T04:34:59.215Z,1.10
2022-10-04T04:37:26.033Z,1.20
2022-10-04T04:39:55.275Z,1.20
2022-10-04T04:42:23.577Z,1.10
2022-10-04T04:44:50.639Z,1.20
2022-10-04T04:47:27.139Z,1.10
2022-10-04T04:49:54.396Z,1.20
2022-10-04T04:52:21.724Z,1.30
2022-10-04T04:54:49.967Z,1.23
2022-10-04T04:57:17.108Z,1.30
2022-10-04T04:59:45.878Z,1.30
2022-10-04T05:02:34.873Z,1.20
2022-10-04T05:05:31.423Z,1.30
2022-10-04T05:08:10.859Z,1.30
2022-10-04T05:10:37.718Z,1.30
2022-10-04T05:13:04.322Z,1.20
2022-10-04T05:15:35.262Z,1.30
2022-10-04T05:18:03.035Z,1.27
2022-10-04T05:20:29.838Z,1.10
2022-10-04T05:22:56.543Z,1.20
2022-10-04T05:25:33.223Z,1.10
2022-10-04T05:27:59.986Z,1.10
2022-10-04T05:30:38.283Z,1.10
2022-10-04T05:33:15.327Z,1.10
2022-10-04T05:36:10.058Z,1.20
2022-10-04T05:38:51.966Z,1.20
2022-10-04T05:41:24.057Z,1.13
2022-10-04T05:43:50.680Z,1.10
2022-10-04T05:46:30.367Z,1.20
2022-10-04T05:49:18.204Z,1.20
2022-10-04T05:52:10.634Z,1.00
2022-10-04T05:54:37.911Z,1.10
2022-10-04T05:57:37.887Z,1.10
2022-10-04T06:00:13.891Z,1.10
2022-10-04T06:03:09.474Z,1.10
2022-10-04T06:05:53.744Z,1.20
2022-10-04T06:08:29.260Z,1.20
2022-10-04T06:11:17.393Z,1.10
2022-10-04T06:13:59.316Z,1.10
2022-10-04T06:17:03.406Z,1.07
2022-10-04T06:19:53.147Z,1.07
2022-10-04T06:22:21.170Z,1.17
2022-10-04T06:25:02.954Z,1.20
2022-10-04T06:27:32.697Z,1.30
2022-10-04T06:30:13.902Z,1.20
2022-10-04T06:33:02.149Z,1.10
2022-10-04T06:36:06.655Z,1.20
2022-10-04T06:38:48.321Z,1.23
2022-10-04T06:41:21.538Z,1.17
2022-10-04T06:44:36.789Z,1.23
2022-10-04T06:47:28.207Z,1.10
2022-10-04T06:50:00.307Z,1.20
2022-10-04T06:52:41.530Z,1.17
2022-10-04T06:55:29.088Z,1.10
2022-10-04T06:58:08.435Z,1.27
2022-10-04T07:00:41.472Z,1.30
2022-10-04T07:03:26.633Z,1.10
2022-10-04T07:06:00.979Z,1.20
2022-10-04T07:08:34.053Z,1.30
2022-10-04T07:11:14.203Z,1.20
2022-10-04T07:13:57.829Z,1.20
2022-10-04T07:16:37.365Z,1.10
2022-10-04T07:19:04.344Z,1.10
2022-10-04T07:21:56.287Z,1.10
2022-10-04T07:24:45.682Z,1.20
2022-10-04T07:27:15.800Z,1.10
2022-10-04T07:29:44.384Z,1.10
2022-10-04T07:32:26.754Z,0.90
2022-10-04T07:35:08.756Z,1.10
2022-10-04T07:37:58.057Z,1.10
2022-10-04T07:40:33.366Z,1.13
2022-10-04T07:43:09.919Z,1.20
2022-10-04T07:45:40.909Z,1.10
2022-10-04T07:48:22.991Z,1.13
2022-10-04T07:51:26.686Z,1.20
2022-10-04T07:54:00.847Z,1.20
2022-10-04T07:56:34.113Z,1.17
2022-10-04T07:59:17.369Z,1.10
2022-10-04T08:02:07.672Z,1.20
2022-10-04T08:04:46.790Z,1.20
2022-10-04T08:07:27.190Z,1.20
2022-10-04T08:10:08.176Z,1.30
2022-10-04T08:13:01.643Z,1.20
2022-10-04T08:15:41.920Z,1.10
2022-10-04T08:18:39.614Z,1.10
2022-10-04T08:21:07.760Z,1.20
2022-10-04T08:24:00.857Z,1.20
2022-10-04T08:26:53.310Z,1.17
2022-10-04T08:29:45.099Z,1.10
2022-10-04T08:32:23.395Z,1.10
2022-10-04T08:34:59.054Z,1.13
2022-10-04T08:37:50.195Z,1.00
2022-10-04T08:40:36.156Z,1.20
2022-10-04T08:43:32.097Z,1.20
2022-10-04T08:46:48.230Z,1.00
2022-10-04T08:49:42.423Z,1.13
2022-10-04T08:52:37.582Z,1.00
2022-10-04T08:55:04.475Z,1.10
2022-10-04T08:57:49.245Z,1.00
2022-10-04T09:00:34.745Z,1.10
2022-10-04T09:03:28.809Z,1.10
2022-10-04T09:05:58.708Z,1.20
2022-10-04T09:08:44.276Z,1.10
2022-10-04T09:11:33.020Z,1.03
2022-10-04T09:14:24.150Z,1.00
2022-10-04T09:17:26.102Z,1.10
2022-10-04T09:20:38.839Z,1.00
2022-10-04T09:23:31.128Z,1.03
2022-10-04T09:26:19.376Z,1.10
2022-10-04T09:29:35.751Z,1.20
2022-10-04T09:32:16.260Z,1.30
2022-10-04T09:35:06.381Z,1.07
2022-10-04T09:37:38.903Z,1.00
2022-10-04T09:40:37.074Z,1.10
2022-10-04T09:43:11.046Z,1.20
2022-10-04T09:45:43.742Z,1.20
2022-10-04T09:48:37.451Z,1.10
2022-10-04T09:51:14.217Z,1.00
2022-10-04T09:53:46.397Z,1.00
2022-10-04T09:56:50.870Z,1.20
2022-10-04T09:59:35.303Z,1.10
2022-10-04T10:02:38.636Z,1.13
2022-10-04T10:05:31.260Z,1.00
2022-10-04T10:08:09.973Z,1.00
2022-10-04T10:11:52.758Z,1.10
2022-10-04T10:14:44.061Z,1.00
2022-10-04T10:17:41.569Z,1.03
2022-10-04T10:20:16.594Z,1.03
2022-10-04T10:22:58.140Z,1.10
2022-10-04T10:25:35.755Z,1.10
2022-10-04T10:28:33.306Z,1.07
2022-10-04T10:30:59.931Z,1.00
2022-10-04T10:33:42.515Z,1.10
2022-10-04T10:36:27.356Z,1.07
2022-10-04T10:39:32.566Z,1.00
2022-10-04T10:42:20.838Z,1.10
2022-10-04T10:44:56.130Z,1.03
2022-10-04T10:47:46.719Z,1.10
2022-10-04T10:50:58.319Z,1.10
2022-10-04T10:53:45.175Z,0.90
2022-10-04T10:56:30.752Z,1.00
2022-10-04T10:59:32.029Z,1.00
2022-10-04T11:02:47.613Z,1.00
2022-10-04T11:05:38.561Z,1.23
2022-10-04T11:08:20.050Z,1.00
2022-10-04T11:11:28.357Z,1.10
2022-10-04T11:14:21.571Z,1.00
2022-10-04T11:17:03.931Z,1.10
2022-10-04T11:19:49.147Z,1.00
2022-10-04T11:22:44.371Z,1.10
2022-10-04T11:25:25.167Z,1.00
2022-10-04T11:27:55.473Z,1.20
2022-10-04T11:30:26.307Z,1.03
2022-10-04T11:33:30.792Z,1.00
2022-10-04T11:36:18.709Z,1.00
2022-10-04T11:39:03.355Z,1.00
2022-10-04T11:41:47.610Z,1.10
2022-10-04T11:44:41.046Z,1.10
2022-10-04T11:47:25.615Z,1.00
2022-10-04T11:50:10.289Z,1.03
2022-10-04T11:53:11.791Z,1.00
2022-10-04T11:56:04.472Z,1.00
2022-10-04T11:58:56.875Z,1.00
2022-10-04T12:01:38.644Z,0.90
2022-10-04T12:04:43.128Z,1.07
2022-10-04T12:07:43.232Z,0.90
2022-10-04T12:10:29.892Z,1.00
2022-10-04T12:12:59.544Z,0.90
2022-10-04T12:15:27.902Z,1.00
2022-10-04T12:18:28.541Z,0.90
2022-10-04T12:21:19.908Z,0.90
2022-10-04T12:24:03.300Z,0.90
2022-10-04T12:27:03.535Z,0.97
2022-10-04T12:30:03.509Z,0.93
2022-10-04T12:32:58.048Z,0.90
2022-10-04T12:35:50.163Z,1.00
2022-10-04T12:38:41.173Z,0.90
2022-10-04T12:41:26.534Z,1.00
2022-10-04T12:43:57.211Z,1.00
2022-10-04T12:46:26.937Z,1.10
2022-10-04T12:49:15.731Z,0.90
2022-10-04T12:51:56.365Z,0.90
2022-10-04T12:54:26.028Z,1.00
2022-10-04T12:57:17.044Z,0.97
2022-10-04T13:00:05.544Z,0.90
2022-10-04T13:03:08.275Z,0.90
2022-10-04T13:05:47.139Z,0.90
2022-10-04T13:08:29.849Z,0.90
2022-10-04T13:11:11.825Z,0.90
2022-10-04T13:14:20.487Z,0.90
2022-10-04T13:17:27.331Z,0.97
2022-10-04T13:20:23.978Z,0.87
2022-10-04T13:23:19.340Z,1.00
2022-10-04T13:26:09.465Z,0.90
2022-10-04T13:28:51.363Z,0.90
2022-10-04T13:31:32.907Z,0.93
2022-10-04T13:34:11.908Z,0.97
2022-10-04T13:36:50.954Z,0.90
2022-10-04T13:39:44.349Z,0.90
2022-10-04T13:42:32.046Z,0.80
2022-10-04T13:45:10.383Z,0.97
2022-10-04T13:47:55.967Z,0.90
2022-10-04T13:50:28.593Z,0.90
2022-10-04T13:53:51.816Z,0.97
2022-10-04T13:56:48.597Z,0.90
2022-10-04T13:59:35.078Z,0.80
2022-10-04T14:02:10.365Z,0.90
2022-10-04T14:05:02.637Z,1.00
2022-10-04T14:07:34.474Z,0.90
2022-10-04T14:10:36.874Z,0.80
2022-10-04T14:13:27.913Z,0.80
2022-10-04T14:16:20.484Z,0.90
2022-10-04T14:18:56.004Z,0.80
2022-10-04T14:21:33.050Z,1.00
2022-10-04T14:24:05.973Z,0.90
2022-10-04T14:26:59.326Z,0.90
2022-10-04T14:29:46.184Z,0.90
2022-10-04T14:32:20.267Z,0.90
2022-10-04T14:35:18.091Z,0.90
2022-10-04T14:38:06.711Z,1.00
2022-10-04T14:40:59.460Z,0.90
2022-10-04T14:43:54.640Z,1.00
2022-10-04T14:46:38.104Z,0.80
2022-10-04T14:49:30.712Z,0.87
2022-10-04T14:52:21.030Z,0.90
2022-10-04T14:54:56.216Z,0.90
2022-10-04T14:57:50.143Z,1.00
2022-10-04T15:00:24.319Z,0.97
2022-10-04T15:03:13.260Z,0.90
2022-10-04T15:06:06.424Z,0.80
2022-10-04T15:08:45.537Z,0.90
2022-10-04T15:11:17.875Z,0.90
2022-10-04T15:13:58.894Z,0.90
2022-10-04T15:16:33.935Z,0.83
2022-10-04T15:19:19.326Z,0.90
2022-10-04T15:21:52.463Z,0.90
2022-10-04T15:24:18.981Z,0.90
2022-10-04T15:26:54.344Z,0.90
2022-10-04T15:29:39.922Z,0.87
2022-10-04T15:32:07.265Z,0.90
2022-10-04T15:34:47.573Z,0.90
2022-10-04T15:37:27.691Z,1.00
2022-10-04T15:40:09.971Z,1.00
2022-10-04T15:42:37.046Z,0.90
2022-10-04T15:45:18.044Z,0.80
2022-10-04T15:48:14.979Z,1.00
2022-10-04T15:51:00.643Z,0.90
2022-10-04T15:54:07.174Z,0.90
2022-10-04T15:57:17.477Z,1.00
2022-10-04T15:59:53.598Z,0.80
2022-10-04T16:02:46.668Z,1.00
2022-10-04T16:05:56.224Z,0.90
2022-10-04T16:08:37.338Z,0.90
2022-10-04T16:11:29.146Z,1.00
2022-10-04T16:14:14.455Z,0.90
2022-10-04T16:17:26.233Z,0.93
2022-10-04T16:20:15.832Z,0.87
2022-10-04T16:22:42.609Z,0.80
2022-10-04T16:25:41.903Z,0.90
2022-10-04T16:28:20.761Z,1.00
2022-10-04T16:31:24.676Z,0.90
2022-10-04T16:34:26.080Z,0.97
2022-10-04T16:37:13.206Z,0.93
2022-10-04T16:39:59.113Z,0.90
2022-10-04T16:42:44.663Z,0.70
2022-10-04T16:45:11.814Z,0.90
2022-10-04T16:48:13.229Z,0.97
2022-10-04T16:51:04.221Z,0.87
2022-10-04T16:53:46.555Z,0.83
2022-10-04T16:56:18.020Z,0.90
2022-10-04T16:59:01.597Z,0.90
2022-10-04T17:01:39.502Z,0.90
2022-10-04T17:04:24.642Z,0.90
2022-10-04T17:06:57.213Z,0.90
2022-10-04T17:09:32.540Z,0.93
2022-10-04T17:12:18.711Z,1.00
2022-10-04T17:15:08.076Z,1.07
2022-10-04T17:18:12.421Z,1.00
2022-10-04T17:20:42.075Z,1.00
2022-10-04T17:23:28.882Z,0.90
2022-10-04T17:26:22.411Z,1.00
2022-10-04T17:29:19.073Z,1.00
2022-10-04T17:31:50.023Z,0.90
2022-10-04T17:34:20.605Z,0.90
2022-10-04T17:37:26.392Z,0.90
2022-10-04T17:40:11.204Z,1.10
2022-10-04T17:43:05.087Z,1.00
2022-10-04T17:45:50.549Z,0.90
2022-10-04T17:48:42.010Z,1.00
2022-10-04T17:51:34.545Z,1.00
2022-10-04T17:54:32.118Z,1.10
2022-10-04T17:57:05.008Z,0.90
2022-10-04T17:59:39.283Z,0.90
2022-10-04T18:02:11.731Z,1.00
2022-10-04T18:04:49.520Z,1.07
2022-10-04T18:07:21.547Z,1.10
2022-10-04T18:09:52.748Z,1.00
2022-10-04T18:12:35.331Z,0.90
2022-10-04T18:15:07.825Z,1.10
2022-10-04T18:17:49.019Z,1.10
2022-10-04T18:20:27.939Z,1.00
2022-10-04T18:23:02.640Z,1.00
2022-10-04T18:25:32.235Z,1.00
2022-10-04T18:28:08.182Z,1.10
2022-10-04T18:31:01.000Z,1.03
2022-10-04T18:33:35.487Z,1.20
2022-10-04T18:36:31.108Z,1.03
2022-10-04T18:39:12.871Z,1.10
2022-10-04T18:41:54.062Z,1.20
2022-10-04T18:44:23.323Z,1.10
2022-10-04T18:46:51.115Z,1.20
2022-10-04T18:49:24.607Z,1.00
2022-10-04T18:52:07.061Z,1.10
2022-10-04T18:55:01.962Z,1.20
2022-10-04T18:57:58.483Z,1.10
2022-10-04T19:00:44.809Z,1.30
2022-10-04T19:03:31.441Z,1.17
2022-10-04T19:06:22.983Z,1.10
2022-10-04T19:08:57.887Z,1.27
2022-10-04T19:11:38.236Z,1.23
2022-10-04T19:14:30.779Z,1.20
2022-10-04T19:17:01.445Z,1.17
2022-10-04T19:19:54.075Z,1.20
2022-10-04T19:22:53.912Z,1.30
2022-10-04T19:25:36.599Z,1.30
2022-10-04T19:28:26.935Z,1.20
2022-10-04T19:31:19.188Z,1.27
2022-10-04T19:33:50.067Z,1.20
2022-10-04T19:36:31.377Z,1.20
2022-10-04T19:39:06.992Z,1.30
2022-10-04T19:41:47.743Z,1.20
2022-10-04T19:44:40.136Z,1.10
2022-10-04T19:47:06.756Z,1.10
2022-10-04T19:50:03.646Z,1.23
2022-10-04T19:53:13.933Z,1.10
2022-10-04T19:55:59.588Z,1.20
2022-10-04T19:58:44.914Z,1.30
2022-10-04T20:01:12.774Z,1.40
2022-10-04T20:03:39.691Z,1.20
2022-10-04T20:06:07.403Z,1.10
2022-10-04T20:09:01.474Z,1.20
2022-10-04T20:11:49.438Z,1.30
2022-10-04T20:14:16.781Z,1.10
2022-10-04T20:16:47.131Z,1.10
2022-10-04T20:19:29.756Z,1.30
2022-10-04T20:21:57.125Z,1.20
2022-10-04T20:24:35.895Z,1.27
2022-10-04T20:27:26.929Z,1.20
2022-10-04T20:29:57.339Z,1.30
2022-10-04T20:32:26.746Z,1.13
2022-10-04T20:34:54.210Z,1.40
2022-10-04T20:37:21.577Z,1.30
2022-10-04T20:39:48.188Z,1.17
2022-10-04T20:42:33.419Z,1.30
2022-10-04T20:45:08.978Z,1.20
2022-10-04T20:47:46.546Z,1.23
2022-10-04T20:50:20.362Z,1.30
2022-10-04T20:52:48.580Z,1.20
2022-10-04T20:55:27.400Z,1.30
2022-10-04T20:58:05.255Z,1.30
2022-10-04T21:00:33.729Z,1.10
2022-10-04T21:03:13.495Z,1.37
2022-10-04T21:05:40.085Z,1.50
2022-10-04T21:08:25.874Z,1.30
2022-10-04T21:11:21.811Z,1.30
2022-10-04T21:14:01.936Z,1.30
2022-10-04T21:16:42.885Z,1.20
2022-10-04T21:19:43.002Z,1.17
2022-10-04T21:22:15.510Z,1.20
2022-10-04T21:24:51.392Z,1.30
2022-10-04T21:27:34.995Z,1.20
2022-10-04T21:30:04.176Z,1.10
2022-10-04T21:32:34.904Z,1.30
2022-10-04T21:35:01.802Z,1.20
2022-10-04T21:37:28.554Z,1.30
2022-10-04T21:39:55.190Z,1.30
2022-10-04T21:42:22.197Z,1.37
2022-10-04T21:44:48.849Z,1.20
2022-10-04T21:47:15.546Z,1.20
2022-10-04T21:49:42.177Z,1.20
2022-10-04T21:52:08.807Z,1.30
2022-10-04T21:54:35.563Z,1.20
2022-10-04T21:57:02.181Z,1.40
2022-10-04T21:59:29.037Z,1.30
2022-10-04T22:01:55.763Z,1.27
2022-10-04T22:04:22.436Z,1.20
2022-10-04T22:06:49.418Z,1.20
2022-10-04T22:09:16.254Z,1.30
2022-10-04T22:11:42.854Z,1.17
2022-10-04T22:14:09.493Z,1.30
2022-10-04T22:16:36.131Z,1.50
2022-10-04T22:19:02.807Z,1.40
2022-10-04T22:21:29.561Z,1.50
2022-10-04T22:23:56.189Z,1.40
2022-10-04T22:26:22.920Z,1.40
2022-10-04T22:28:51.334Z,1.30
2022-10-04T22:31:19.899Z,1.30
2022-10-04T22:33:47.839Z,1.40
2022-10-04T22:36:17.264Z,1.40
2022-10-04T22:38:48.365Z,1.40
2022-10-04T22:41:16.210Z,1.27
2022-10-04T22:43:42.813Z,1.30
2022-10-04T22:46:14.707Z,1.33
2022-10-04T22:48:41.798Z,1.30
2022-10-04T22:51:10.918Z,1.33
2022-10-04T22:53:37.588Z,1.30
2022-10-04T22:56:04.341Z,1.40
2022-10-04T22:58:30.940Z,1.40
2022-10-04T23:00:57.626Z,1.10
2022-10-04T23:03:31.157Z,1.20
2022-10-04T23:05:59.368Z,1.33
2022-10-04T23:08:26.419Z,1.40
2022-10-04T23:10:56.916Z,1.40
2022-10-04T23:13:24.924Z,1.20
2022-10-04T23:15:52.147Z,1.40
2022-10-04T23:18:18.870Z,1.20
2022-10-04T23:20:49.263Z,1.20
2022-10-04T23:23:18.352Z,1.47
2022-10-04T23:25:47.014Z,1.30
2022-10-04T23:28:15.436Z,1.20
2022-10-04T23:30:42.547Z,1.30
2022-10-04T23:33:20.153Z,1.20
2022-10-04T23:35:46.938Z,1.20
2022-10-04T23:38:15.698Z,1.40
2022-10-04T23:40:42.298Z,1.27
2022-10-04T23:43:10.889Z,1.40
2022-10-04T23:45:41.784Z,1.30
2022-10-04T23:48:08.820Z,1.40
2022-10-04T23:50:36.266Z,1.20
2022-10-04T23:53:04.502Z,1.30
2022-10-04T23:55:36.027Z,1.30
2022-10-04T23:58:05.608Z,1.30
